sensor_id;sensor_type;location;lat;lon;timestamp;temperature;humidity
9820;DHT22;4949;48.482;9.206;2024-03-23T00:54:04;10.00;94.20
9820;DHT22;4949;48.482;9.206;2024-03-23T00:59:05;10.00;94.20
9820;DHT22;4949;48.482;9.206;2024-03-23T01:04:05;10.00;94.30
9820;DHT22;4949;48.482;9.206;2024-03-23T01:09:06;9.90;94.80
9820;DHT22;4949;48.482;9.206;2024-03-23T01:14:07;9.80;94.90
9820;DHT22;4949;48.482;9.206;2024-03-23T01:19:10;9.70;95.00
9820;DHT22;4949;48.482;9.206;2024-03-23T01:24:13;9.80;95.30
9820;DHT22;4949;48.482;9.206;2024-03-23T01:29:15;10.20;95.00
9820;DHT22;4949;48.482;9.206;2024-03-23T01:34:15;10.20;95.10
9820;DHT22;4949;48.482;9.206;2024-03-23T01:39:16;10.10;95.20
9820;DHT22;4949;48.482;9.206;2024-03-23T01:44:17;10.60;96.10
9820;DHT22;4949;48.482;9.206;2024-03-23T01:49:18;11.00;96.60
9820;DHT22;4949;48.482;9.206;2024-03-23T01:54:19;11.70;95.60
9820;DHT22;4949;48.482;9.206;2024-03-23T01:59:20;12.10;94.90
9820;DHT22;4949;48.482;9.206;2024-03-23T02:04:21;12.40;94.50
9820;DHT22;4949;48.482;9.206;2024-03-23T02:09:22;12.70;93.90
9820;DHT22;4949;48.482;9.206;2024-03-23T02:14:22;13.00;93.50
9820;DHT22;4949;48.482;9.206;2024-03-23T02:19:23;13.20;93.30
9820;DHT22;4949;48.482;9.206;2024-03-23T02:24:24;13.60;93.10
9820;DHT22;4949;48.482;9.206;2024-03-23T02:29:25;13.60;92.70
9820;DHT22;4949;48.482;9.206;2024-03-23T02:34:26;13.60;92.50
9820;DHT22;4949;48.482;9.206;2024-03-23T02:39:27;14.00;92.80
9820;DHT22;4949;48.482;9.206;2024-03-23T02:44:28;13.90;92.60
9820;DHT22;4949;48.482;9.206;2024-03-23T02:49:28;13.90;92.20
9820;DHT22;4949;48.482;9.206;2024-03-23T02:54:29;13.90;92.20
9820;DHT22;4949;48.482;9.206;2024-03-23T02:59:32;14.20;92.00
9820;DHT22;4949;48.482;9.206;2024-03-23T03:04:33;14.10;91.90
9820;DHT22;4949;48.482;9.206;2024-03-23T03:09:34;14.00;92.00
9820;DHT22;4949;48.482;9.206;2024-03-23T03:14:37;14.10;91.90
9820;DHT22;4949;48.482;9.206;2024-03-23T03:19:38;14.10;92.10
9820;DHT22;4949;48.482;9.206;2024-03-23T03:24:39;13.90;92.20
9820;DHT22;4949;48.482;9.206;2024-03-23T03:29:39;13.90;92.30
9820;DHT22;4949;48.482;9.206;2024-03-23T03:34:40;13.70;92.40
9820;DHT22;4949;48.482;9.206;2024-03-23T03:39:41;13.50;92.60
9820;DHT22;4949;48.482;9.206;2024-03-23T03:44:42;13.30;92.70
9820;DHT22;4949;48.482;9.206;2024-03-23T03:49:42;13.50;92.80
9820;DHT22;4949;48.482;9.206;2024-03-23T03:54:43;13.40;92.70
9820;DHT22;4949;48.482;9.206;2024-03-23T03:59:46;13.40;92.60
9820;DHT22;4949;48.482;9.206;2024-03-23T04:04:49;13.50;92.50
9820;DHT22;4949;48.482;9.206;2024-03-23T04:09:50;13.50;92.40
9820;DHT22;4949;48.482;9.206;2024-03-23T04:14:51;13.60;92.40
9820;DHT22;4949;48.482;9.206;2024-03-23T04:19:51;13.50;92.40
9820;DHT22;4949;48.482;9.206;2024-03-23T04:24:54;13.60;92.10
9820;DHT22;4949;48.482;9.206;2024-03-23T04:29:57;13.60;92.30
9820;DHT22;4949;48.482;9.206;2024-03-23T04:34:58;13.90;91.80
9820;DHT22;4949;48.482;9.206;2024-03-23T04:40:00;13.70;91.50
9820;DHT22;4949;48.482;9.206;2024-03-23T04:45:06;13.70;91.60
9820;DHT22;4949;48.482;9.206;2024-03-23T04:50:07;13.70;90.80
9820;DHT22;4949;48.482;9.206;2024-03-23T04:55:08;13.70;90.70
9820;DHT22;4949;48.482;9.206;2024-03-23T05:00:10;13.80;90.20
9820;DHT22;4949;48.482;9.206;2024-03-23T05:05:19;13.90;90.00
9820;DHT22;4949;48.482;9.206;2024-03-23T05:10:20;13.90;90.00
9820;DHT22;4949;48.482;9.206;2024-03-23T05:15:21;13.90;90.00
9820;DHT22;4949;48.482;9.206;2024-03-23T05:20:21;13.90;90.20
9820;DHT22;4949;48.482;9.206;2024-03-23T05:25:22;13.90;90.00
9820;DHT22;4949;48.482;9.206;2024-03-23T05:30:23;13.90;90.30
9820;DHT22;4949;48.482;9.206;2024-03-23T05:35:24;13.50;91.40
9820;DHT22;4949;48.482;9.206;2024-03-23T05:40:26;13.20;93.00
9820;DHT22;4949;48.482;9.206;2024-03-23T05:45:27;12.50;96.90
9820;DHT22;4949;48.482;9.206;2024-03-23T05:50:28;11.90;99.90
9820;DHT22;4949;48.482;9.206;2024-03-23T05:55:28;11.60;99.90
9820;DHT22;4949;48.482;9.206;2024-03-23T06:00:29;11.40;99.90
9820;DHT22;4949;48.482;9.206;2024-03-23T06:05:30;11.30;99.90
9820;DHT22;4949;48.482;9.206;2024-03-23T06:10:31;11.30;99.90
9820;DHT22;4949;48.482;9.206;2024-03-23T06:15:34;11.10;99.90
9820;DHT22;4949;48.482;9.206;2024-03-23T06:20:38;11.20;99.90
9820;DHT22;4949;48.482;9.206;2024-03-23T06:25:39;11.10;99.90
9820;DHT22;4949;48.482;9.206;2024-03-23T06:30:40;11.10;99.90
9820;DHT22;4949;48.482;9.206;2024-03-23T06:35:41;11.10;99.90
9820;DHT22;4949;48.482;9.206;2024-03-23T06:40:41;11.00;99.90
9820;DHT22;4949;48.482;9.206;2024-03-23T06:45:42;10.60;99.90
9820;DHT22;4949;48.482;9.206;2024-03-23T06:50:43;10.40;99.90
9820;DHT22;4949;48.482;9.206;2024-03-23T06:55:50;10.40;99.90
9820;DHT22;4949;48.482;9.206;2024-03-23T07:00:52;10.50;99.90
9820;DHT22;4949;48.482;9.206;2024-03-23T07:05:55;10.20;99.70
9820;DHT22;4949;48.482;9.206;2024-03-23T07:11:00;10.00;99.50
9820;DHT22;4949;48.482;9.206;2024-03-23T07:16:01;10.20;99.60
9820;DHT22;4949;48.482;9.206;2024-03-23T07:21:04;9.80;99.80
9820;DHT22;4949;48.482;9.206;2024-03-23T07:26:07;9.80;99.90
9820;DHT22;4949;48.482;9.206;2024-03-23T07:31:10;9.90;99.90
9820;DHT22;4949;48.482;9.206;2024-03-23T07:36:12;9.90;99.90
9820;DHT22;4949;48.482;9.206;2024-03-23T07:41:20;10.00;99.70
9820;DHT22;4949;48.482;9.206;2024-03-23T07:46:21;9.80;99.90
9820;DHT22;4949;48.482;9.206;2024-03-23T07:51:22;9.90;99.90
9820;DHT22;4949;48.482;9.206;2024-03-23T07:56:23;10.00;99.70
9820;DHT22;4949;48.482;9.206;2024-03-23T08:01:24;10.00;99.60
9820;DHT22;4949;48.482;9.206;2024-03-23T08:06:25;10.00;99.90
9820;DHT22;4949;48.482;9.206;2024-03-23T08:11:27;10.00;99.90
9820;DHT22;4949;48.482;9.206;2024-03-23T08:16:34;10.20;99.90
9820;DHT22;4949;48.482;9.206;2024-03-23T08:21:38;9.70;98.70
9820;DHT22;4949;48.482;9.206;2024-03-23T08:26:39;9.30;99.70
9820;DHT22;4949;48.482;9.206;2024-03-23T08:31:40;9.30;99.80
9820;DHT22;4949;48.482;9.206;2024-03-23T08:36:43;9.70;99.90
9820;DHT22;4949;48.482;9.206;2024-03-23T08:41:44;9.60;99.60
9820;DHT22;4949;48.482;9.206;2024-03-23T08:46:46;9.40;98.00
9820;DHT22;4949;48.482;9.206;2024-03-23T08:51:47;9.50;97.80
9820;DHT22;4949;48.482;9.206;2024-03-23T08:56:47;9.40;96.90
9820;DHT22;4949;48.482;9.206;2024-03-23T09:01:48;9.40;95.20
9820;DHT22;4949;48.482;9.206;2024-03-23T09:06:49;9.30;95.00
9820;DHT22;4949;48.482;9.206;2024-03-23T09:11:52;9.10;94.70
9820;DHT22;4949;48.482;9.206;2024-03-23T09:16:53;9.10;94.70
9820;DHT22;4949;48.482;9.206;2024-03-23T09:21:53;9.20;94.60
9820;DHT22;4949;48.482;9.206;2024-03-23T09:26:54;9.20;94.40
9820;DHT22;4949;48.482;9.206;2024-03-23T09:31:55;9.10;94.00
9820;DHT22;4949;48.482;9.206;2024-03-23T09:36:56;8.90;94.50
9820;DHT22;4949;48.482;9.206;2024-03-23T09:41:57;8.80;95.10
9820;DHT22;4949;48.482;9.206;2024-03-23T09:46:58;9.10;95.70
9820;DHT22;4949;48.482;9.206;2024-03-23T09:51:59;8.60;96.00
9820;DHT22;4949;48.482;9.206;2024-03-23T09:57:00;8.70;96.20
9820;DHT22;4949;48.482;9.206;2024-03-23T10:02:01;8.80;97.00
9820;DHT22;4949;48.482;9.206;2024-03-23T10:07:18;8.90;95.90
9820;DHT22;4949;48.482;9.206;2024-03-23T10:12:24;9.10;95.20
9820;DHT22;4949;48.482;9.206;2024-03-23T10:17:25;9.20;94.50
9820;DHT22;4949;48.482;9.206;2024-03-23T10:22:25;9.30;94.00
9820;DHT22;4949;48.482;9.206;2024-03-23T10:27:27;9.60;93.40
9820;DHT22;4949;48.482;9.206;2024-03-23T10:32:28;9.60;93.60
9820;DHT22;4949;48.482;9.206;2024-03-23T10:37:29;10.00;92.70
9820;DHT22;4949;48.482;9.206;2024-03-23T10:42:30;9.90;91.60
9820;DHT22;4949;48.482;9.206;2024-03-23T10:47:35;10.00;90.60
9820;DHT22;4949;48.482;9.206;2024-03-23T10:52:36;10.30;86.60
9820;DHT22;4949;48.482;9.206;2024-03-23T10:57:41;10.50;86.90
9820;DHT22;4949;48.482;9.206;2024-03-23T11:02:50;10.30;85.40
9820;DHT22;4949;48.482;9.206;2024-03-23T11:07:51;10.30;83.30
9820;DHT22;4949;48.482;9.206;2024-03-23T11:12:53;9.50;94.50
9820;DHT22;4949;48.482;9.206;2024-03-23T11:18:05;8.20;97.90
9820;DHT22;4949;48.482;9.206;2024-03-23T11:23:27;8.10;97.70
9820;DHT22;4949;48.482;9.206;2024-03-23T11:28:30;8.00;97.30
9820;DHT22;4949;48.482;9.206;2024-03-23T11:33:31;8.10;96.70
9820;DHT22;4949;48.482;9.206;2024-03-23T11:38:36;8.20;96.90
9820;DHT22;4949;48.482;9.206;2024-03-23T11:43:37;8.10;97.20
9820;DHT22;4949;48.482;9.206;2024-03-23T11:48:41;8.20;96.50
9820;DHT22;4949;48.482;9.206;2024-03-23T11:53:50;8.10;95.10
9820;DHT22;4949;48.482;9.206;2024-03-23T11:58:51;8.10;94.40
9820;DHT22;4949;48.482;9.206;2024-03-23T12:03:53;8.00;94.40
9820;DHT22;4949;48.482;9.206;2024-03-23T12:09:05;7.80;94.10
9820;DHT22;4949;48.482;9.206;2024-03-23T12:14:09;8.10;94.50
9820;DHT22;4949;48.482;9.206;2024-03-23T12:19:10;8.00;94.00
9820;DHT22;4949;48.482;9.206;2024-03-23T12:24:11;7.90;94.20
9820;DHT22;4949;48.482;9.206;2024-03-23T12:29:14;7.70;95.00
9820;DHT22;4949;48.482;9.206;2024-03-23T12:34:14;7.60;95.00
9820;DHT22;4949;48.482;9.206;2024-03-23T12:39:15;7.30;95.90
9820;DHT22;4949;48.482;9.206;2024-03-23T12:44:16;7.40;95.80
9820;DHT22;4949;48.482;9.206;2024-03-23T12:49:16;7.30;96.70
9820;DHT22;4949;48.482;9.206;2024-03-23T12:54:20;7.60;96.70
9820;DHT22;4949;48.482;9.206;2024-03-23T12:59:23;8.70;96.10
9820;DHT22;4949;48.482;9.206;2024-03-23T13:04:26;9.00;94.60
9820;DHT22;4949;48.482;9.206;2024-03-23T13:09:27;9.20;93.80
9820;DHT22;4949;48.482;9.206;2024-03-23T13:14:28;9.00;93.90
9820;DHT22;4949;48.482;9.206;2024-03-23T13:19:28;9.00;94.20
9820;DHT22;4949;48.482;9.206;2024-03-23T13:24:31;9.10;93.90
9820;DHT22;4949;48.482;9.206;2024-03-23T13:29:32;9.30;93.90
9820;DHT22;4949;48.482;9.206;2024-03-23T13:34:32;9.70;93.00
9820;DHT22;4949;48.482;9.206;2024-03-23T13:39:36;10.60;92.30
9820;DHT22;4949;48.482;9.206;2024-03-23T13:44:36;10.40;90.70
9820;DHT22;4949;48.482;9.206;2024-03-23T13:49:42;10.00;90.40
9820;DHT22;4949;48.482;9.206;2024-03-23T13:54:42;9.90;91.20
9820;DHT22;4949;48.482;9.206;2024-03-23T13:59:47;10.40;90.50
9820;DHT22;4949;48.482;9.206;2024-03-23T14:04:50;9.80;92.00
9820;DHT22;4949;48.482;9.206;2024-03-23T14:09:51;9.80;91.50
9820;DHT22;4949;48.482;9.206;2024-03-23T14:14:55;10.70;94.60
9820;DHT22;4949;48.482;9.206;2024-03-23T14:19:56;10.80;91.10
9820;DHT22;4949;48.482;9.206;2024-03-23T14:25:01;11.10;91.30
9820;DHT22;4949;48.482;9.206;2024-03-23T14:30:01;11.20;90.30
9820;DHT22;4949;48.482;9.206;2024-03-23T14:35:06;11.10;90.10
9820;DHT22;4949;48.482;9.206;2024-03-23T14:40:11;10.40;86.50
9820;DHT22;4949;48.482;9.206;2024-03-23T14:45:13;9.80;88.50
9820;DHT22;4949;48.482;9.206;2024-03-23T14:50:16;9.30;89.70
9820;DHT22;4949;48.482;9.206;2024-03-23T14:55:17;9.10;94.50
9820;DHT22;4949;48.482;9.206;2024-03-23T15:00:18;9.10;94.70
9820;DHT22;4949;48.482;9.206;2024-03-23T15:05:19;9.30;94.00
9820;DHT22;4949;48.482;9.206;2024-03-23T15:10:21;9.00;94.60
9820;DHT22;4949;48.482;9.206;2024-03-23T15:15:21;8.10;95.90
9820;DHT22;4949;48.482;9.206;2024-03-23T15:20:22;7.60;97.10
9820;DHT22;4949;48.482;9.206;2024-03-23T15:25:23;8.00;97.80
9820;DHT22;4949;48.482;9.206;2024-03-23T15:30:24;8.70;97.30
9820;DHT22;4949;48.482;9.206;2024-03-23T15:35:24;9.30;96.60
9820;DHT22;4949;48.482;9.206;2024-03-23T15:40:28;9.40;95.60
9820;DHT22;4949;48.482;9.206;2024-03-23T15:45:29;9.00;96.20
9820;DHT22;4949;48.482;9.206;2024-03-23T15:50:30;8.80;95.50
9820;DHT22;4949;48.482;9.206;2024-03-23T15:55:30;8.80;96.40
9820;DHT22;4949;48.482;9.206;2024-03-23T16:00:31;8.30;96.30
9820;DHT22;4949;48.482;9.206;2024-03-23T16:05:32;8.40;96.20
9820;DHT22;4949;48.482;9.206;2024-03-23T16:10:32;8.60;96.40
9820;DHT22;4949;48.482;9.206;2024-03-23T16:15:33;9.10;95.60
9820;DHT22;4949;48.482;9.206;2024-03-23T16:20:34;9.30;94.90
9820;DHT22;4949;48.482;9.206;2024-03-23T16:25:35;8.90;93.80
9820;DHT22;4949;48.482;9.206;2024-03-23T16:30:41;8.70;94.20
9820;DHT22;4949;48.482;9.206;2024-03-23T16:35:42;8.70;94.90
9820;DHT22;4949;48.482;9.206;2024-03-23T16:40:53;8.50;94.30
9820;DHT22;4949;48.482;9.206;2024-03-23T16:45:59;8.40;94.70
9820;DHT22;4949;48.482;9.206;2024-03-23T16:51:04;8.50;94.40
9820;DHT22;4949;48.482;9.206;2024-03-23T16:56:07;8.40;95.00
9820;DHT22;4949;48.482;9.206;2024-03-23T17:01:14;8.40;94.50
9820;DHT22;4949;48.482;9.206;2024-03-23T17:06:23;8.70;94.00
9820;DHT22;4949;48.482;9.206;2024-03-23T17:11:25;8.70;93.50
9820;DHT22;4949;48.482;9.206;2024-03-23T17:16:26;8.50;93.60
9820;DHT22;4949;48.482;9.206;2024-03-23T17:21:30;8.50;93.90
9820;DHT22;4949;48.482;9.206;2024-03-23T17:26:33;8.30;94.20
9820;DHT22;4949;48.482;9.206;2024-03-23T17:31:34;8.10;93.60
9820;DHT22;4949;48.482;9.206;2024-03-23T17:36:35;7.90;93.50
9820;DHT22;4949;48.482;9.206;2024-03-23T17:41:38;7.90;93.80
9820;DHT22;4949;48.482;9.206;2024-03-23T17:46:39;7.70;93.90
9820;DHT22;4949;48.482;9.206;2024-03-23T17:51:40;7.40;93.80
9820;DHT22;4949;48.482;9.206;2024-03-23T17:56:40;7.20;94.30
9820;DHT22;4949;48.482;9.206;2024-03-23T18:01:41;7.20;94.70
9820;DHT22;4949;48.482;9.206;2024-03-23T18:06:42;7.30;94.80
9820;DHT22;4949;48.482;9.206;2024-03-23T18:11:42;7.00;95.20
9820;DHT22;4949;48.482;9.206;2024-03-23T18:16:43;7.00;96.10
9820;DHT22;4949;48.482;9.206;2024-03-23T18:21:44;6.70;97.30
9820;DHT22;4949;48.482;9.206;2024-03-23T18:26:45;6.70;97.70
9820;DHT22;4949;48.482;9.206;2024-03-23T18:31:46;6.80;97.80
9820;DHT22;4949;48.482;9.206;2024-03-23T18:36:46;6.70;97.80
9820;DHT22;4949;48.482;9.206;2024-03-23T18:41:50;6.60;97.70
9820;DHT22;4949;48.482;9.206;2024-03-23T18:46:51;6.60;97.60
9820;DHT22;4949;48.482;9.206;2024-03-23T18:51:51;6.60;97.50
9820;DHT22;4949;48.482;9.206;2024-03-23T18:56:55;6.60;96.90
9820;DHT22;4949;48.482;9.206;2024-03-23T19:01:56;6.50;96.50
9820;DHT22;4949;48.482;9.206;2024-03-23T19:06:56;6.40;96.40
9820;DHT22;4949;48.482;9.206;2024-03-23T19:11:57;6.40;96.60
9820;DHT22;4949;48.482;9.206;2024-03-23T19:16:58;6.40;96.40
9820;DHT22;4949;48.482;9.206;2024-03-23T19:21:59;6.80;96.20
9820;DHT22;4949;48.482;9.206;2024-03-23T19:27:00;6.40;96.00
9820;DHT22;4949;48.482;9.206;2024-03-23T19:32:01;6.40;96.10
9820;DHT22;4949;48.482;9.206;2024-03-23T19:37:01;6.30;96.20
9820;DHT22;4949;48.482;9.206;2024-03-23T19:42:03;6.30;96.30
9820;DHT22;4949;48.482;9.206;2024-03-23T19:47:04;6.20;96.60
9820;DHT22;4949;48.482;9.206;2024-03-23T19:52:05;6.20;96.30
9820;DHT22;4949;48.482;9.206;2024-03-23T19:57:06;6.10;96.60
9820;DHT22;4949;48.482;9.206;2024-03-23T20:02:07;6.20;96.30
9820;DHT22;4949;48.482;9.206;2024-03-23T20:07:10;6.10;96.50
9820;DHT22;4949;48.482;9.206;2024-03-23T20:12:12;6.00;96.30
9820;DHT22;4949;48.482;9.206;2024-03-23T20:17:13;6.00;96.50
9820;DHT22;4949;48.482;9.206;2024-03-23T20:22:14;6.10;96.50
9820;DHT22;4949;48.482;9.206;2024-03-23T20:27:15;6.20;96.20
9820;DHT22;4949;48.482;9.206;2024-03-23T20:32:15;6.30;96.30
9820;DHT22;4949;48.482;9.206;2024-03-23T20:37:17;6.00;96.40
9820;DHT22;4949;48.482;9.206;2024-03-23T20:42:18;6.00;96.30
9820;DHT22;4949;48.482;9.206;2024-03-23T20:47:19;6.40;97.00
9820;DHT22;4949;48.482;9.206;2024-03-23T20:52:22;6.00;96.80
9820;DHT22;4949;48.482;9.206;2024-03-23T20:57:23;6.00;96.90
9820;DHT22;4949;48.482;9.206;2024-03-23T21:02:24;6.20;96.70
9820;DHT22;4949;48.482;9.206;2024-03-23T21:07:27;5.80;96.80
9820;DHT22;4949;48.482;9.206;2024-03-23T21:12:28;5.80;97.20
9820;DHT22;4949;48.482;9.206;2024-03-23T21:17:28;5.70;96.90
9820;DHT22;4949;48.482;9.206;2024-03-23T21:22:29;5.80;97.20
9820;DHT22;4949;48.482;9.206;2024-03-23T21:27:30;5.70;97.20
9820;DHT22;4949;48.482;9.206;2024-03-23T21:32:31;5.50;97.80
9820;DHT22;4949;48.482;9.206;2024-03-23T21:37:32;5.80;98.10
9820;DHT22;4949;48.482;9.206;2024-03-23T21:42:32;5.60;97.40
9820;DHT22;4949;48.482;9.206;2024-03-23T21:47:33;5.60;97.80
9820;DHT22;4949;48.482;9.206;2024-03-23T21:52:36;5.70;97.60
9820;DHT22;4949;48.482;9.206;2024-03-23T21:57:37;5.80;96.40
9820;DHT22;4949;48.482;9.206;2024-03-23T22:02:38;5.90;96.40
9820;DHT22;4949;48.482;9.206;2024-03-23T22:07:38;6.00;96.50
9820;DHT22;4949;48.482;9.206;2024-03-23T22:12:39;5.60;96.30
9820;DHT22;4949;48.482;9.206;2024-03-23T22:17:40;5.50;96.50
9820;DHT22;4949;48.482;9.206;2024-03-23T22:22:41;5.60;96.40
9820;DHT22;4949;48.482;9.206;2024-03-23T22:27:41;5.50;96.60
9820;DHT22;4949;48.482;9.206;2024-03-23T22:32:45;5.50;96.40
9820;DHT22;4949;48.482;9.206;2024-03-23T22:37:47;5.60;96.60
9820;DHT22;4949;48.482;9.206;2024-03-23T22:42:47;5.50;96.30
9820;DHT22;4949;48.482;9.206;2024-03-23T22:47:50;5.50;95.80
9820;DHT22;4949;48.482;9.206;2024-03-23T22:52:51;5.60;96.00
9820;DHT22;4949;48.482;9.206;2024-03-23T22:57:54;5.60;95.90
9820;DHT22;4949;48.482;9.206;2024-03-23T23:02:55;5.60;95.80
9820;DHT22;4949;48.482;9.206;2024-03-23T23:07:55;5.70;96.10
9820;DHT22;4949;48.482;9.206;2024-03-23T23:12:56;5.70;96.10
9820;DHT22;4949;48.482;9.206;2024-03-23T23:17:57;5.80;96.00
9820;DHT22;4949;48.482;9.206;2024-03-23T23:22:58;5.80;95.90
9820;DHT22;4949;48.482;9.206;2024-03-23T23:27:59;5.80;95.60
9820;DHT22;4949;48.482;9.206;2024-03-23T23:32:59;5.90;95.80
9820;DHT22;4949;48.482;9.206;2024-03-23T23:38:00;5.80;95.80
9820;DHT22;4949;48.482;9.206;2024-03-23T23:43:01;5.90;95.40
9820;DHT22;4949;48.482;9.206;2024-03-23T23:48:02;6.00;95.40
9820;DHT22;4949;48.482;9.206;2024-03-23T23:53:03;6.00;95.30
9820;DHT22;4949;48.482;9.206;2024-03-23T23:58:04;6.40;95.10
